sensor_id;sensor_type;location;lat;lon;timestamp;P1;durP1;ratioP1;P2;durP2;ratioP2
41059;SDS011;26811;53.160;8.202;2023-11-21T00:03:21;44.10;;;14.50;;
41059;SDS011;26811;53.160;8.202;2023-11-21T00:08:23;50.65;;;14.40;;
41059;SDS011;26811;53.160;8.202;2023-11-21T00:13:24;46.17;;;13.82;;
41059;SDS011;26811;53.160;8.202;2023-11-21T00:18:24;58.72;;;15.68;;
41059;SDS011;26811;53.160;8.202;2023-11-21T00:23:25;55.33;;;16.17;;
41059;SDS011;26811;53.160;8.202;2023-11-21T00:28:26;46.90;;;15.68;;
41059;SDS011;26811;53.160;8.202;2023-11-21T00:33:26;58.85;;;15.57;;
41059;SDS011;26811;53.160;8.202;2023-11-21T00:38:27;58.45;;;14.70;;
41059;SDS011;26811;53.160;8.202;2023-11-21T00:43:28;48.00;;;15.65;;
41059;SDS011;26811;53.160;8.202;2023-11-21T00:48:28;54.80;;;15.40;;
41059;SDS011;26811;53.160;8.202;2023-11-21T00:53:29;38.80;;;14.18;;
41059;SDS011;26811;53.160;8.202;2023-11-21T00:58:30;46.20;;;15.13;;
41059;SDS011;26811;53.160;8.202;2023-11-21T01:03:30;55.83;;;14.52;;
41059;SDS011;26811;53.160;8.202;2023-11-21T01:08:31;56.22;;;15.02;;
41059;SDS011;26811;53.160;8.202;2023-11-21T01:13:31;39.33;;;13.82;;
41059;SDS011;26811;53.160;8.202;2023-11-21T01:18:32;48.22;;;15.73;;
41059;SDS011;26811;53.160;8.202;2023-11-21T01:23:32;54.17;;;16.42;;
41059;SDS011;26811;53.160;8.202;2023-11-21T01:28:33;53.28;;;17.80;;
41059;SDS011;26811;53.160;8.202;2023-11-21T01:33:33;62.97;;;19.67;;
41059;SDS011;26811;53.160;8.202;2023-11-21T01:38:34;56.25;;;19.75;;
41059;SDS011;26811;53.160;8.202;2023-11-21T01:43:34;57.08;;;20.30;;
41059;SDS011;26811;53.160;8.202;2023-11-21T01:48:35;55.13;;;20.75;;
41059;SDS011;26811;53.160;8.202;2023-11-21T01:53:36;60.50;;;21.92;;
41059;SDS011;26811;53.160;8.202;2023-11-21T01:58:37;57.05;;;19.38;;
41059;SDS011;26811;53.160;8.202;2023-11-21T02:03:37;52.03;;;20.70;;
41059;SDS011;26811;53.160;8.202;2023-11-21T02:08:38;52.65;;;20.23;;
41059;SDS011;26811;53.160;8.202;2023-11-21T02:13:39;50.33;;;19.85;;
41059;SDS011;26811;53.160;8.202;2023-11-21T02:18:43;55.40;;;20.17;;
41059;SDS011;26811;53.160;8.202;2023-11-21T02:23:44;56.33;;;18.42;;
41059;SDS011;26811;53.160;8.202;2023-11-21T02:28:46;46.20;;;18.60;;
41059;SDS011;26811;53.160;8.202;2023-11-21T02:33:47;52.47;;;18.42;;
41059;SDS011;26811;53.160;8.202;2023-11-21T02:38:48;42.83;;;18.13;;
41059;SDS011;26811;53.160;8.202;2023-11-21T02:43:48;47.80;;;17.00;;
41059;SDS011;26811;53.160;8.202;2023-11-21T02:48:49;45.90;;;15.63;;
41059;SDS011;26811;53.160;8.202;2023-11-21T02:53:51;43.38;;;15.43;;
41059;SDS011;26811;53.160;8.202;2023-11-21T02:58:51;37.20;;;15.05;;
41059;SDS011;26811;53.160;8.202;2023-11-21T03:03:53;44.40;;;14.82;;
41059;SDS011;26811;53.160;8.202;2023-11-21T03:13:56;54.83;;;16.40;;
41059;SDS011;26811;53.160;8.202;2023-11-21T03:18:57;55.17;;;16.83;;
41059;SDS011;26811;53.160;8.202;2023-11-21T03:23:57;40.55;;;15.32;;
41059;SDS011;26811;53.160;8.202;2023-11-21T03:28:59;43.38;;;15.43;;
41059;SDS011;26811;53.160;8.202;2023-11-21T03:34:00;43.45;;;16.60;;
41059;SDS011;26811;53.160;8.202;2023-11-21T03:39:00;46.65;;;15.88;;
41059;SDS011;26811;53.160;8.202;2023-11-21T03:44:01;46.65;;;15.68;;
41059;SDS011;26811;53.160;8.202;2023-11-21T03:49:02;48.55;;;14.38;;
41059;SDS011;26811;53.160;8.202;2023-11-21T03:54:03;50.00;;;14.90;;
41059;SDS011;26811;53.160;8.202;2023-11-21T03:59:04;48.22;;;14.25;;
41059;SDS011;26811;53.160;8.202;2023-11-21T04:04:04;51.47;;;15.57;;
41059;SDS011;26811;53.160;8.202;2023-11-21T04:09:05;58.78;;;16.52;;
41059;SDS011;26811;53.160;8.202;2023-11-21T04:14:05;57.15;;;15.68;;
41059;SDS011;26811;53.160;8.202;2023-11-21T04:19:06;62.22;;;16.45;;
41059;SDS011;26811;53.160;8.202;2023-11-21T04:24:07;64.05;;;16.25;;
41059;SDS011;26811;53.160;8.202;2023-11-21T04:29:07;67.10;;;17.42;;
41059;SDS011;26811;53.160;8.202;2023-11-21T04:34:08;69.97;;;21.80;;
41059;SDS011;26811;53.160;8.202;2023-11-21T04:39:08;69.07;;;20.90;;
41059;SDS011;26811;53.160;8.202;2023-11-21T04:44:09;75.57;;;22.75;;
41059;SDS011;26811;53.160;8.202;2023-11-21T04:49:09;72.38;;;21.90;;
41059;SDS011;26811;53.160;8.202;2023-11-21T04:54:11;74.97;;;22.65;;
41059;SDS011;26811;53.160;8.202;2023-11-21T04:59:11;72.15;;;22.63;;
41059;SDS011;26811;53.160;8.202;2023-11-21T05:04:12;73.43;;;21.90;;
41059;SDS011;26811;53.160;8.202;2023-11-21T05:09:12;64.65;;;21.60;;
41059;SDS011;26811;53.160;8.202;2023-11-21T05:14:13;64.07;;;21.90;;
41059;SDS011;26811;53.160;8.202;2023-11-21T05:19:14;62.58;;;21.67;;
41059;SDS011;26811;53.160;8.202;2023-11-21T05:24:14;60.10;;;20.77;;
41059;SDS011;26811;53.160;8.202;2023-11-21T05:29:15;62.25;;;21.45;;
41059;SDS011;26811;53.160;8.202;2023-11-21T05:34:16;51.67;;;18.02;;
41059;SDS011;26811;53.160;8.202;2023-11-21T05:39:16;58.38;;;19.38;;
41059;SDS011;26811;53.160;8.202;2023-11-21T05:44:20;60.65;;;19.55;;
41059;SDS011;26811;53.160;8.202;2023-11-21T05:49:21;51.85;;;17.02;;
41059;SDS011;26811;53.160;8.202;2023-11-21T05:54:21;54.20;;;17.58;;
41059;SDS011;26811;53.160;8.202;2023-11-21T05:59:23;55.10;;;18.70;;
41059;SDS011;26811;53.160;8.202;2023-11-21T06:04:24;55.65;;;18.35;;
41059;SDS011;26811;53.160;8.202;2023-11-21T06:09:24;49.65;;;17.58;;
41059;SDS011;26811;53.160;8.202;2023-11-21T06:14:25;55.45;;;17.63;;
41059;SDS011;26811;53.160;8.202;2023-11-21T06:19:25;59.47;;;18.85;;
41059;SDS011;26811;53.160;8.202;2023-11-21T06:24:26;58.97;;;18.75;;
41059;SDS011;26811;53.160;8.202;2023-11-21T06:29:26;50.75;;;17.17;;
41059;SDS011;26811;53.160;8.202;2023-11-21T06:34:27;52.22;;;19.08;;
41059;SDS011;26811;53.160;8.202;2023-11-21T06:39:27;45.40;;;16.75;;
41059;SDS011;26811;53.160;8.202;2023-11-21T06:44:28;42.28;;;15.80;;
41059;SDS011;26811;53.160;8.202;2023-11-21T06:49:28;36.08;;;15.63;;
41059;SDS011;26811;53.160;8.202;2023-11-21T06:54:30;33.45;;;14.50;;
41059;SDS011;26811;53.160;8.202;2023-11-21T06:59:31;31.90;;;14.55;;
41059;SDS011;26811;53.160;8.202;2023-11-21T07:04:35;31.10;;;13.88;;
41059;SDS011;26811;53.160;8.202;2023-11-21T07:09:36;33.25;;;15.68;;
41059;SDS011;26811;53.160;8.202;2023-11-21T07:14:36;45.25;;;15.40;;
41059;SDS011;26811;53.160;8.202;2023-11-21T07:19:39;33.17;;;15.87;;
41059;SDS011;26811;53.160;8.202;2023-11-21T07:24:39;32.75;;;14.63;;
41059;SDS011;26811;53.160;8.202;2023-11-21T07:29:40;38.65;;;16.27;;
41059;SDS011;26811;53.160;8.202;2023-11-21T07:34:41;30.83;;;14.27;;
41059;SDS011;26811;53.160;8.202;2023-11-21T07:39:41;32.40;;;13.93;;
41059;SDS011;26811;53.160;8.202;2023-11-21T07:44:42;30.23;;;13.50;;
41059;SDS011;26811;53.160;8.202;2023-11-21T07:49:43;29.88;;;13.48;;
41059;SDS011;26811;53.160;8.202;2023-11-21T07:54:44;33.25;;;13.40;;
41059;SDS011;26811;53.160;8.202;2023-11-21T07:59:45;30.35;;;14.27;;
41059;SDS011;26811;53.160;8.202;2023-11-21T08:04:45;32.70;;;14.70;;
41059;SDS011;26811;53.160;8.202;2023-11-21T08:14:50;33.35;;;13.45;;
41059;SDS011;26811;53.160;8.202;2023-11-21T08:19:50;29.52;;;13.80;;
41059;SDS011;26811;53.160;8.202;2023-11-21T08:24:51;32.25;;;14.68;;
41059;SDS011;26811;53.160;8.202;2023-11-21T08:29:51;29.67;;;13.15;;
41059;SDS011;26811;53.160;8.202;2023-11-21T08:34:52;32.45;;;14.35;;
41059;SDS011;26811;53.160;8.202;2023-11-21T08:39:53;31.33;;;13.90;;
41059;SDS011;26811;53.160;8.202;2023-11-21T08:44:53;31.38;;;14.65;;
41059;SDS011;26811;53.160;8.202;2023-11-21T08:49:54;27.92;;;13.40;;
41059;SDS011;26811;53.160;8.202;2023-11-21T08:54:54;29.33;;;13.68;;
41059;SDS011;26811;53.160;8.202;2023-11-21T09:00:02;31.00;;;13.57;;
41059;SDS011;26811;53.160;8.202;2023-11-21T09:05:07;28.48;;;13.18;;
41059;SDS011;26811;53.160;8.202;2023-11-21T09:10:09;28.05;;;13.88;;
41059;SDS011;26811;53.160;8.202;2023-11-21T09:15:10;29.63;;;13.80;;
41059;SDS011;26811;53.160;8.202;2023-11-21T09:20:11;27.40;;;14.27;;
41059;SDS011;26811;53.160;8.202;2023-11-21T09:25:12;28.38;;;13.85;;
41059;SDS011;26811;53.160;8.202;2023-11-21T09:30:13;25.50;;;13.88;;
41059;SDS011;26811;53.160;8.202;2023-11-21T09:35:16;25.30;;;13.10;;
41059;SDS011;26811;53.160;8.202;2023-11-21T09:40:17;26.60;;;14.20;;
41059;SDS011;26811;53.160;8.202;2023-11-21T09:50:27;25.55;;;13.23;;
41059;SDS011;26811;53.160;8.202;2023-11-21T09:55:28;28.00;;;13.07;;
41059;SDS011;26811;53.160;8.202;2023-11-21T10:00:29;28.50;;;13.27;;
41059;SDS011;26811;53.160;8.202;2023-11-21T10:05:33;24.48;;;13.00;;
41059;SDS011;26811;53.160;8.202;2023-11-21T10:10:34;19.67;;;11.90;;
41059;SDS011;26811;53.160;8.202;2023-11-21T10:15:36;24.55;;;13.13;;
41059;SDS011;26811;53.160;8.202;2023-11-21T10:20:37;22.40;;;12.07;;
41059;SDS011;26811;53.160;8.202;2023-11-21T10:25:38;21.08;;;11.68;;
41059;SDS011;26811;53.160;8.202;2023-11-21T10:30:39;25.90;;;11.98;;
41059;SDS011;26811;53.160;8.202;2023-11-21T10:35:47;20.50;;;11.80;;
41059;SDS011;26811;53.160;8.202;2023-11-21T10:40:51;20.52;;;11.73;;
41059;SDS011;26811;53.160;8.202;2023-11-21T10:45:52;25.15;;;12.60;;
41059;SDS011;26811;53.160;8.202;2023-11-21T10:50:57;22.73;;;11.77;;
41059;SDS011;26811;53.160;8.202;2023-11-21T10:56:02;22.92;;;12.35;;
41059;SDS011;26811;53.160;8.202;2023-11-21T11:01:10;23.30;;;13.20;;
41059;SDS011;26811;53.160;8.202;2023-11-21T11:06:12;24.02;;;12.07;;
41059;SDS011;26811;53.160;8.202;2023-11-21T11:11:13;22.10;;;12.30;;
41059;SDS011;26811;53.160;8.202;2023-11-21T11:16:14;24.45;;;12.43;;
41059;SDS011;26811;53.160;8.202;2023-11-21T11:21:23;23.88;;;12.75;;
41059;SDS011;26811;53.160;8.202;2023-11-21T11:26:32;25.00;;;12.25;;
41059;SDS011;26811;53.160;8.202;2023-11-21T11:32:39;26.15;;;12.65;;
41059;SDS011;26811;53.160;8.202;2023-11-21T11:37:24;24.40;;;12.07;;
41059;SDS011;26811;53.160;8.202;2023-11-21T11:42:25;21.92;;;11.82;;
41059;SDS011;26811;53.160;8.202;2023-11-21T11:47:28;22.95;;;12.50;;
41059;SDS011;26811;53.160;8.202;2023-11-21T11:57:43;20.65;;;11.07;;
41059;SDS011;26811;53.160;8.202;2023-11-21T12:02:47;18.77;;;10.98;;
41059;SDS011;26811;53.160;8.202;2023-11-21T12:12:55;19.45;;;11.10;;
41059;SDS011;26811;53.160;8.202;2023-11-21T12:17:59;19.65;;;11.02;;
41059;SDS011;26811;53.160;8.202;2023-11-21T12:23:00;20.42;;;10.40;;
41059;SDS011;26811;53.160;8.202;2023-11-21T12:28:01;16.40;;;9.18;;
41059;SDS011;26811;53.160;8.202;2023-11-21T12:33:03;14.30;;;7.90;;
41059;SDS011;26811;53.160;8.202;2023-11-21T12:38:06;13.52;;;7.65;;
41059;SDS011;26811;53.160;8.202;2023-11-21T12:43:09;9.80;;;6.90;;
41059;SDS011;26811;53.160;8.202;2023-11-21T12:48:09;15.57;;;6.65;;
41059;SDS011;26811;53.160;8.202;2023-11-21T12:53:11;15.45;;;7.10;;
41059;SDS011;26811;53.160;8.202;2023-11-21T12:58:12;13.57;;;7.97;;
41059;SDS011;26811;53.160;8.202;2023-11-21T13:03:14;12.77;;;7.78;;
41059;SDS011;26811;53.160;8.202;2023-11-21T13:08:21;13.55;;;7.85;;
41059;SDS011;26811;53.160;8.202;2023-11-21T13:13:23;18.33;;;8.10;;
41059;SDS011;26811;53.160;8.202;2023-11-21T13:18:25;14.68;;;7.78;;
41059;SDS011;26811;53.160;8.202;2023-11-21T13:23:28;13.15;;;7.97;;
41059;SDS011;26811;53.160;8.202;2023-11-21T13:28:34;14.95;;;8.40;;
41059;SDS011;26811;53.160;8.202;2023-11-21T13:33:37;14.48;;;8.30;;
41059;SDS011;26811;53.160;8.202;2023-11-21T13:38:38;12.98;;;8.43;;
41059;SDS011;26811;53.160;8.202;2023-11-21T13:43:42;14.00;;;8.32;;
41059;SDS011;26811;53.160;8.202;2023-11-21T13:48:48;12.82;;;8.05;;
41059;SDS011;26811;53.160;8.202;2023-11-21T13:53:55;15.55;;;8.73;;
41059;SDS011;26811;53.160;8.202;2023-11-21T13:58:56;14.40;;;8.50;;
41059;SDS011;26811;53.160;8.202;2023-11-21T14:03:59;15.98;;;9.20;;
41059;SDS011;26811;53.160;8.202;2023-11-21T14:09:20;15.00;;;8.70;;
41059;SDS011;26811;53.160;8.202;2023-11-21T14:14:24;13.25;;;8.85;;
41059;SDS011;26811;53.160;8.202;2023-11-21T14:19:25;15.43;;;8.43;;
41059;SDS011;26811;53.160;8.202;2023-11-21T14:24:32;18.13;;;8.20;;
41059;SDS011;26811;53.160;8.202;2023-11-21T14:29:33;16.98;;;8.50;;
41059;SDS011;26811;53.160;8.202;2023-11-21T14:34:38;13.52;;;8.00;;
41059;SDS011;26811;53.160;8.202;2023-11-21T14:39:40;15.80;;;8.48;;
41059;SDS011;26811;53.160;8.202;2023-11-21T14:44:44;15.60;;;8.25;;
41059;SDS011;26811;53.160;8.202;2023-11-21T14:49:45;14.10;;;8.63;;
41059;SDS011;26811;53.160;8.202;2023-11-21T14:54:52;18.55;;;10.05;;
41059;SDS011;26811;53.160;8.202;2023-11-21T15:00:13;18.02;;;10.45;;
41059;SDS011;26811;53.160;8.202;2023-11-21T15:05:31;20.23;;;9.90;;
41059;SDS011;26811;53.160;8.202;2023-11-21T15:10:34;18.95;;;10.93;;
41059;SDS011;26811;53.160;8.202;2023-11-21T15:15:49;21.63;;;11.27;;
41059;SDS011;26811;53.160;8.202;2023-11-21T15:20:50;35.88;;;16.27;;
41059;SDS011;26811;53.160;8.202;2023-11-21T15:25:50;35.88;;;17.08;;
41059;SDS011;26811;53.160;8.202;2023-11-21T15:30:52;121.65;;;40.25;;
41059;SDS011;26811;53.160;8.202;2023-11-21T15:35:53;39.70;;;16.45;;
41059;SDS011;26811;53.160;8.202;2023-11-21T15:40:54;118.47;;;38.50;;
41059;SDS011;26811;53.160;8.202;2023-11-21T15:45:54;66.30;;;27.52;;
41059;SDS011;26811;53.160;8.202;2023-11-21T15:50:55;25.40;;;14.35;;
41059;SDS011;26811;53.160;8.202;2023-11-21T15:55:57;22.75;;;11.50;;
41059;SDS011;26811;53.160;8.202;2023-11-21T16:00:58;16.00;;;9.95;;
41059;SDS011;26811;53.160;8.202;2023-11-21T16:05:58;18.50;;;10.18;;
41059;SDS011;26811;53.160;8.202;2023-11-21T16:10:59;15.45;;;9.65;;
41059;SDS011;26811;53.160;8.202;2023-11-21T16:16:00;15.27;;;8.57;;
41059;SDS011;26811;53.160;8.202;2023-11-21T16:21:01;13.00;;;8.38;;
41059;SDS011;26811;53.160;8.202;2023-11-21T16:26:01;11.40;;;7.85;;
41059;SDS011;26811;53.160;8.202;2023-11-21T16:31:04;12.93;;;7.65;;
41059;SDS011;26811;53.160;8.202;2023-11-21T16:36:05;16.58;;;8.52;;
41059;SDS011;26811;53.160;8.202;2023-11-21T16:41:06;15.68;;;8.70;;
41059;SDS011;26811;53.160;8.202;2023-11-21T16:46:09;13.90;;;8.23;;
41059;SDS011;26811;53.160;8.202;2023-11-21T16:51:11;14.70;;;7.82;;
41059;SDS011;26811;53.160;8.202;2023-11-21T16:56:16;10.02;;;5.80;;
41059;SDS011;26811;53.160;8.202;2023-11-21T17:01:17;8.52;;;5.90;;
41059;SDS011;26811;53.160;8.202;2023-11-21T17:06:19;10.98;;;6.25;;
41059;SDS011;26811;53.160;8.202;2023-11-21T17:11:19;8.23;;;5.28;;
41059;SDS011;26811;53.160;8.202;2023-11-21T17:16:20;7.18;;;5.22;;
41059;SDS011;26811;53.160;8.202;2023-11-21T17:21:21;11.05;;;6.25;;
41059;SDS011;26811;53.160;8.202;2023-11-21T17:26:22;9.20;;;5.93;;
41059;SDS011;26811;53.160;8.202;2023-11-21T17:31:23;9.60;;;5.38;;
41059;SDS011;26811;53.160;8.202;2023-11-21T17:36:24;11.45;;;6.68;;
41059;SDS011;26811;53.160;8.202;2023-11-21T17:41:24;9.00;;;5.60;;
41059;SDS011;26811;53.160;8.202;2023-11-21T17:46:25;14.13;;;7.45;;
41059;SDS011;26811;53.160;8.202;2023-11-21T17:51:25;9.65;;;6.13;;
41059;SDS011;26811;53.160;8.202;2023-11-21T17:56:26;17.35;;;7.75;;
41059;SDS011;26811;53.160;8.202;2023-11-21T18:01:28;9.00;;;5.45;;
41059;SDS011;26811;53.160;8.202;2023-11-21T18:06:33;9.35;;;6.53;;
41059;SDS011;26811;53.160;8.202;2023-11-21T18:11:34;11.55;;;6.45;;
41059;SDS011;26811;53.160;8.202;2023-11-21T18:16:34;17.42;;;8.30;;
41059;SDS011;26811;53.160;8.202;2023-11-21T18:21:38;15.10;;;8.07;;
41059;SDS011;26811;53.160;8.202;2023-11-21T18:26:40;12.73;;;7.80;;
41059;SDS011;26811;53.160;8.202;2023-11-21T18:31:41;12.50;;;6.88;;
41059;SDS011;26811;53.160;8.202;2023-11-21T18:36:43;19.27;;;7.70;;
41059;SDS011;26811;53.160;8.202;2023-11-21T18:46:45;10.88;;;6.80;;
41059;SDS011;26811;53.160;8.202;2023-11-21T18:51:46;10.25;;;6.43;;
41059;SDS011;26811;53.160;8.202;2023-11-21T18:56:48;10.00;;;6.38;;
41059;SDS011;26811;53.160;8.202;2023-11-21T19:01:48;10.23;;;6.05;;
41059;SDS011;26811;53.160;8.202;2023-11-21T19:06:49;10.18;;;6.65;;
41059;SDS011;26811;53.160;8.202;2023-11-21T19:11:50;12.18;;;6.53;;
41059;SDS011;26811;53.160;8.202;2023-11-21T19:16:50;16.63;;;10.63;;
41059;SDS011;26811;53.160;8.202;2023-11-21T19:21:51;14.23;;;7.72;;
41059;SDS011;26811;53.160;8.202;2023-11-21T19:26:51;12.00;;;6.78;;
41059;SDS011;26811;53.160;8.202;2023-11-21T19:31:52;10.60;;;6.47;;
41059;SDS011;26811;53.160;8.202;2023-11-21T19:36:54;22.25;;;10.18;;
41059;SDS011;26811;53.160;8.202;2023-11-21T19:41:55;12.90;;;7.35;;
41059;SDS011;26811;53.160;8.202;2023-11-21T19:46:55;14.95;;;7.25;;
41059;SDS011;26811;53.160;8.202;2023-11-21T19:51:56;16.50;;;8.13;;
41059;SDS011;26811;53.160;8.202;2023-11-21T19:56:56;16.33;;;8.10;;
41059;SDS011;26811;53.160;8.202;2023-11-21T20:01:57;15.98;;;8.50;;
41059;SDS011;26811;53.160;8.202;2023-11-21T20:06:59;16.50;;;8.25;;
41059;SDS011;26811;53.160;8.202;2023-11-21T20:11:59;15.95;;;8.13;;
41059;SDS011;26811;53.160;8.202;2023-11-21T20:17:00;18.80;;;8.95;;
41059;SDS011;26811;53.160;8.202;2023-11-21T20:22:02;15.50;;;8.93;;
41059;SDS011;26811;53.160;8.202;2023-11-21T20:27:03;14.23;;;8.75;;
41059;SDS011;26811;53.160;8.202;2023-11-21T20:32:05;13.55;;;8.60;;
41059;SDS011;26811;53.160;8.202;2023-11-21T20:37:06;16.30;;;8.70;;
41059;SDS011;26811;53.160;8.202;2023-11-21T20:42:06;17.00;;;9.60;;
41059;SDS011;26811;53.160;8.202;2023-11-21T20:47:09;16.17;;;9.73;;
41059;SDS011;26811;53.160;8.202;2023-11-21T20:52:09;15.38;;;9.35;;
41059;SDS011;26811;53.160;8.202;2023-11-21T20:57:10;18.13;;;9.85;;
41059;SDS011;26811;53.160;8.202;2023-11-21T21:02:11;18.77;;;9.93;;
41059;SDS011;26811;53.160;8.202;2023-11-21T21:07:12;17.92;;;9.82;;
41059;SDS011;26811;53.160;8.202;2023-11-21T21:12:13;15.57;;;9.30;;
41059;SDS011;26811;53.160;8.202;2023-11-21T21:17:14;17.17;;;9.40;;
41059;SDS011;26811;53.160;8.202;2023-11-21T21:22:14;18.55;;;9.60;;
41059;SDS011;26811;53.160;8.202;2023-11-21T21:27:16;20.02;;;10.15;;
41059;SDS011;26811;53.160;8.202;2023-11-21T21:32:16;17.92;;;9.75;;
41059;SDS011;26811;53.160;8.202;2023-11-21T21:37:17;18.17;;;9.68;;
41059;SDS011;26811;53.160;8.202;2023-11-21T21:42:18;19.85;;;10.38;;
41059;SDS011;26811;53.160;8.202;2023-11-21T21:47:18;19.50;;;11.05;;
41059;SDS011;26811;53.160;8.202;2023-11-21T21:52:19;19.35;;;10.95;;
41059;SDS011;26811;53.160;8.202;2023-11-21T21:57:20;18.90;;;11.32;;
41059;SDS011;26811;53.160;8.202;2023-11-21T22:02:20;25.02;;;11.32;;
41059;SDS011;26811;53.160;8.202;2023-11-21T22:07:21;20.52;;;10.65;;
41059;SDS011;26811;53.160;8.202;2023-11-21T22:12:22;21.98;;;11.63;;
41059;SDS011;26811;53.160;8.202;2023-11-21T22:17:22;26.77;;;11.57;;
41059;SDS011;26811;53.160;8.202;2023-11-21T22:22:23;20.80;;;11.18;;
41059;SDS011;26811;53.160;8.202;2023-11-21T22:27:23;23.20;;;11.18;;
41059;SDS011;26811;53.160;8.202;2023-11-21T22:32:24;23.40;;;11.65;;
41059;SDS011;26811;53.160;8.202;2023-11-21T22:37:25;19.50;;;10.90;;
41059;SDS011;26811;53.160;8.202;2023-11-21T22:42:25;26.23;;;11.68;;
41059;SDS011;26811;53.160;8.202;2023-11-21T22:47:26;22.23;;;10.25;;
41059;SDS011;26811;53.160;8.202;2023-11-21T22:52:26;23.08;;;11.30;;
41059;SDS011;26811;53.160;8.202;2023-11-21T22:57:27;23.00;;;10.90;;
41059;SDS011;26811;53.160;8.202;2023-11-21T23:02:27;19.48;;;10.50;;
41059;SDS011;26811;53.160;8.202;2023-11-21T23:07:28;22.63;;;11.70;;
41059;SDS011;26811;53.160;8.202;2023-11-21T23:12:28;23.15;;;10.50;;
41059;SDS011;26811;53.160;8.202;2023-11-21T23:17:29;25.17;;;10.55;;
41059;SDS011;26811;53.160;8.202;2023-11-21T23:22:29;24.98;;;10.68;;
41059;SDS011;26811;53.160;8.202;2023-11-21T23:27:32;23.20;;;11.17;;
41059;SDS011;26811;53.160;8.202;2023-11-21T23:32:33;20.55;;;11.02;;
41059;SDS011;26811;53.160;8.202;2023-11-21T23:37:33;19.38;;;10.40;;
41059;SDS011;26811;53.160;8.202;2023-11-21T23:42:34;18.90;;;10.65;;
41059;SDS011;26811;53.160;8.202;2023-11-21T23:47:35;23.00;;;10.57;;
41059;SDS011;26811;53.160;8.202;2023-11-21T23:52:35;25.38;;;11.95;;
41059;SDS011;26811;53.160;8.202;2023-11-21T23:57:36;25.83;;;11.82;;
